createdAt,value
2016-08-20T00:00:52.691Z,95.79
2016-08-20T00:01:53.484Z,95.55
2016-08-20T00:02:54.185Z,95.75
2016-08-20T00:03:52.680Z,95.45
2016-08-20T00:04:52.075Z,94.98
2016-08-20T00:05:54.086Z,95.36
2016-08-20T00:06:53.916Z,96.32
2016-08-20T00:07:53.355Z,96.22
2016-08-20T00:08:52.973Z,96.32
2016-08-20T00:09:53.317Z,96.32
2016-08-20T00:10:53.432Z,96.51
2016-08-20T00:11:54.202Z,96.42
2016-08-20T00:12:52.673Z,97.09
2016-08-20T00:13:52.791Z,97.19
2016-08-20T00:14:52.985Z,95.55
2016-08-20T00:15:53.370Z,96.03
2016-08-20T00:16:53.390Z,95.75
2016-08-20T00:17:53.453Z,96.13
2016-08-20T00:18:54.679Z,95.84
2016-08-20T00:19:54.155Z,95.65
2016-08-20T00:20:53.438Z,95.84
2016-08-20T00:21:53.028Z,95.65
2016-08-20T00:22:52.710Z,95.84
2016-08-20T00:23:54.448Z,96.7
2016-08-20T00:24:53.735Z,96.13
2016-08-20T00:25:53.122Z,96.61
2016-08-20T00:26:53.388Z,96.99
2016-08-20T00:27:54.418Z,97.09
2016-08-20T00:28:54.250Z,97.04
2016-08-20T00:29:54.428Z,97.52
2016-08-20T00:30:53.346Z,97.24
2016-08-20T00:31:54.327Z,96.99
2016-08-20T00:32:53.395Z,97.19
2016-08-20T00:33:54.379Z,96.7
2016-08-20T00:34:54.381Z,95.75
2016-08-20T00:35:53.088Z,96.51
2016-08-20T00:36:54.770Z,96.51
2016-08-20T00:37:53.886Z,96.99
2016-08-20T00:38:53.303Z,96.51
2016-08-20T00:39:53.245Z,96.7
2016-08-20T00:40:54.645Z,96.13
2016-08-20T00:41:53.290Z,96.03
2016-08-20T00:42:54.567Z,96.32
2016-08-20T00:43:53.712Z,97.86
2016-08-20T00:44:53.274Z,97.96
2016-08-20T00:45:55.181Z,98.34
2016-08-20T00:46:54.931Z,98.34
2016-08-20T00:47:53.551Z,98.29
2016-08-20T00:48:54.208Z,98.14
2016-08-20T00:49:54.590Z,98
2016-08-20T00:50:54.592Z,98.38
2016-08-20T00:51:55.215Z,97.86
2016-08-20T00:52:54.686Z,97.96
2016-08-20T00:53:55.190Z,98.24
2016-08-20T00:54:54.433Z,97.66
2016-08-20T00:55:54.087Z,97.96
2016-08-20T00:56:54.308Z,98.24
2016-08-20T00:57:54.768Z,98.43
2016-08-20T00:58:54.152Z,98.38
2016-08-20T00:59:55.806Z,98.29
2016-08-20T01:00:54.490Z,98
2016-08-20T01:01:54.667Z,98.1
2016-08-20T01:02:54.236Z,98.48
2016-08-20T01:03:54.238Z,98.19
2016-08-20T01:04:54.953Z,98.67
2016-08-20T01:05:55.315Z,97.91
2016-08-20T01:06:54.752Z,98.1
2016-08-20T01:07:54.843Z,97.91
2016-08-20T01:08:54.568Z,98.1
2016-08-20T01:09:54.387Z,98.29
2016-08-20T01:10:54.574Z,98.19
2016-08-20T01:11:54.723Z,98.58
2016-08-20T01:12:55.222Z,98.58
2016-08-20T01:13:54.425Z,98.1
2016-08-20T01:14:56.277Z,98.43
2016-08-20T01:15:55.704Z,98
2016-08-20T01:16:54.681Z,98.43
2016-08-20T01:17:54.818Z,98.05
2016-08-20T01:18:55.212Z,97.86
2016-08-20T01:19:54.672Z,97.96
2016-08-20T01:20:54.910Z,98.14
2016-08-20T01:21:55.678Z,98.48
2016-08-20T01:22:55.534Z,96.37
2016-08-20T01:23:55.307Z,97.24
2016-08-20T01:24:54.873Z,97.86
2016-08-20T01:25:54.774Z,97.66
2016-08-20T01:26:54.656Z,98.1
2016-08-20T01:27:54.540Z,98.1
2016-08-20T01:28:55.145Z,98.19
2016-08-20T01:29:57.074Z,98
2016-08-20T01:30:55.580Z,98.1
2016-08-20T01:31:55.587Z,98.1
2016-08-20T01:32:55.153Z,98.86
2016-08-20T01:33:55.703Z,99.05
2016-08-20T01:34:57.954Z,99.54
2016-08-20T01:35:54.827Z,99.34
2016-08-20T01:36:55.681Z,98.67
2016-08-20T01:37:55.136Z,98.86
2016-08-20T01:38:55.063Z,98.67
2016-08-20T01:39:55.425Z,98.48
2016-08-20T01:40:55.271Z,98.1
2016-08-20T01:41:55.964Z,98.1
2016-08-20T01:42:55.428Z,98.29
2016-08-20T01:43:55.007Z,98.77
2016-08-20T01:44:56.091Z,98.29
2016-08-20T01:45:56.079Z,98.29
2016-08-20T01:46:56.457Z,98
2016-08-20T01:47:55.703Z,98.1
2016-08-20T01:48:55.462Z,98.1
2016-08-20T01:49:55.609Z,98.29
2016-08-20T01:50:55.165Z,97.81
2016-08-20T01:51:55.355Z,97.91
2016-08-20T01:52:55.528Z,97.42
2016-08-20T01:53:55.719Z,96.61
2016-08-20T01:54:56.016Z,98.24
2016-08-20T01:55:55.404Z,98.05
2016-08-20T01:56:56.177Z,98.14
2016-08-20T01:57:56.934Z,97.91
2016-08-20T01:58:56.977Z,97.91
2016-08-20T01:59:57.459Z,98.67
2016-08-20T02:00:56.664Z,98.29
2016-08-20T02:01:55.411Z,98.48
2016-08-20T02:02:55.905Z,98.38
2016-08-20T02:03:55.465Z,98.38
2016-08-20T02:04:56.258Z,98.77
2016-08-20T02:05:55.794Z,98.91
2016-08-20T02:06:56.264Z,98.86
2016-08-20T02:07:56.362Z,98.86
2016-08-20T02:08:56.455Z,98.96
2016-08-20T02:09:56.921Z,98.86
2016-08-20T02:10:55.918Z,98.86
2016-08-20T02:11:55.461Z,99.05
2016-08-20T02:12:56.582Z,99.54
2016-08-20T02:13:56.085Z,98
2016-08-20T02:14:55.945Z,98.38
2016-08-20T02:15:56.744Z,98.29
2016-08-20T02:16:56.041Z,98.86
2016-08-20T02:17:56.471Z,98.48
2016-08-20T02:18:56.728Z,98.38
2016-08-20T02:19:56.662Z,98.96
2016-08-20T02:20:56.593Z,98.77
2016-08-20T02:21:56.160Z,99.05
2016-08-20T02:22:56.821Z,99.15
2016-08-20T02:23:57.037Z,98.38
2016-08-20T02:24:57.018Z,98.67
2016-08-20T02:25:55.857Z,98.96
2016-08-20T02:26:57.900Z,99.05
2016-08-20T02:27:56.279Z,98.38
2016-08-20T02:28:57.190Z,98.67
2016-08-20T02:29:57.863Z,98.86
2016-08-20T02:30:57.481Z,99.05
2016-08-20T02:31:56.785Z,99.15
2016-08-20T02:32:56.605Z,98.62
2016-08-20T02:33:56.621Z,98.96
2016-08-20T02:34:56.884Z,99.05
2016-08-20T02:35:56.563Z,98.82
2016-08-20T02:36:56.968Z,98.43
2016-08-20T02:37:59.005Z,98.33
2016-08-20T02:38:57.000Z,98.43
2016-08-20T02:39:58.087Z,99.01
2016-08-20T02:40:56.609Z,98.33
2016-08-20T02:41:58.046Z,98.91
2016-08-20T02:42:59.040Z,98.33
2016-08-20T02:43:56.579Z,98.62
2016-08-20T02:44:58.776Z,98.62
2016-08-20T02:45:57.997Z,99.29
2016-08-20T02:46:57.028Z,98.82
2016-08-20T02:47:56.627Z,98.82
2016-08-20T02:48:57.804Z,98.62
2016-08-20T02:49:56.948Z,98.91
2016-08-20T02:50:57.385Z,98.82
2016-08-20T02:51:57.180Z,98.05
2016-08-20T02:52:57.191Z,98.72
2016-08-20T02:53:57.650Z,99.01
2016-08-20T02:54:58.446Z,99.1
2016-08-20T02:55:58.429Z,99.99
2016-08-20T02:56:58.169Z,99.99
2016-08-20T02:57:58.524Z,99.77
2016-08-20T02:58:57.090Z,99.99
2016-08-20T02:59:57.764Z,99.87
2016-08-20T03:00:57.797Z,99.99
2016-08-20T03:01:56.848Z,99.99
2016-08-20T03:02:59.571Z,99.99
2016-08-20T03:03:57.982Z,99.87
2016-08-20T03:04:58.144Z,99.77
2016-08-20T03:05:58.400Z,99.87
2016-08-20T03:06:57.798Z,99.87
2016-08-20T03:07:58.027Z,99.99
2016-08-20T03:08:57.265Z,99.96
2016-08-20T03:09:57.355Z,99.99
2016-08-20T03:10:57.777Z,99.99
2016-08-20T03:11:58.298Z,99.99
2016-08-20T03:12:57.601Z,99.77
2016-08-20T03:13:57.435Z,99.58
2016-08-20T03:14:58.125Z,99.99
2016-08-20T03:15:57.983Z,99.99
2016-08-20T03:16:57.328Z,99.99
2016-08-20T03:17:57.463Z,99.96
2016-08-20T03:18:58.454Z,99.99
2016-08-20T03:19:57.642Z,99.99
2016-08-20T03:20:57.482Z,99.99
2016-08-20T03:21:59.272Z,99.99
2016-08-20T03:22:57.725Z,99.99
2016-08-20T03:23:58.229Z,99.99
2016-08-20T03:24:58.028Z,99.99
2016-08-20T03:25:58.985Z,99.99
2016-08-20T03:27:00.130Z,99.99
2016-08-20T03:27:59.862Z,99.99
2016-08-20T03:28:58.211Z,99.99
2016-08-20T03:29:57.450Z,99.77
2016-08-20T03:30:59.512Z,99.87
2016-08-20T03:31:58.020Z,99.68
2016-08-20T03:32:58.026Z,99.49
2016-08-20T03:33:59.831Z,99.29
2016-08-20T03:34:58.581Z,98.91
2016-08-20T03:35:59.174Z,98.62
2016-08-20T03:36:59.930Z,98.53
2016-08-20T03:37:58.108Z,98.82
2016-08-20T03:38:59.118Z,98.24
2016-08-20T03:39:58.237Z,97.56
2016-08-20T03:40:59.178Z,98.91
2016-08-20T03:41:58.324Z,97.86
2016-08-20T03:42:58.175Z,98.05
2016-08-20T03:43:59.013Z,98.96
2016-08-20T03:45:00.475Z,99.1
2016-08-20T03:45:58.501Z,99.39
2016-08-20T03:46:58.433Z,99.58
2016-08-20T03:47:59.249Z,99.29
2016-08-20T03:48:59.176Z,99.2
2016-08-20T03:49:58.331Z,99.01
2016-08-20T03:50:59.777Z,99.77
2016-08-20T03:51:59.157Z,99.68
2016-08-20T03:52:59.323Z,99.1
2016-08-20T03:53:59.974Z,99.77
2016-08-20T03:54:59.063Z,99.99
2016-08-20T03:55:58.211Z,99.01
2016-08-20T03:56:59.856Z,99.92
2016-08-20T03:57:58.980Z,98.33
2016-08-20T03:58:58.273Z,98.62
2016-08-20T03:59:59.309Z,98.29
2016-08-20T04:00:59.169Z,98.96
2016-08-20T04:01:59.983Z,98.48
2016-08-20T04:02:59.895Z,98.1
2016-08-20T04:03:59.520Z,98.33
2016-08-20T04:04:58.921Z,98.86
2016-08-20T04:05:59.283Z,99.44
2016-08-20T04:06:59.644Z,99.25
2016-08-20T04:07:59.916Z,98.62
2016-08-20T04:08:59.666Z,99.25
2016-08-20T04:09:59.943Z,99.34
2016-08-20T04:10:59.701Z,99.99
2016-08-20T04:11:59.222Z,98.96
2016-08-20T04:12:59.258Z,98.86
2016-08-20T04:13:59.159Z,99.34
2016-08-20T04:14:59.871Z,99.25
2016-08-20T04:15:59.576Z,99.05
2016-08-20T04:16:59.832Z,99.25
2016-08-20T04:17:59.658Z,99.44
2016-08-20T04:18:59.729Z,99.99
2016-08-20T04:19:59.722Z,98.48
2016-08-20T04:21:00.150Z,98.86
2016-08-20T04:21:59.806Z,98.48
2016-08-20T04:22:58.265Z,98.77
2016-08-20T04:24:00.305Z,99.15
2016-08-20T04:24:59.861Z,98.86
2016-08-20T04:26:00.025Z,99.05
2016-08-20T04:26:59.459Z,98.77
2016-08-20T04:27:59.102Z,99.05
2016-08-20T04:28:59.432Z,98.86
2016-08-20T04:29:59.961Z,99.92
2016-08-20T04:30:59.923Z,98.43
2016-08-20T04:32:01.338Z,99.05
2016-08-20T04:32:59.611Z,99.34
2016-08-20T04:33:59.603Z,98.38
2016-08-20T04:35:00.781Z,98.77
2016-08-20T04:35:59.288Z,98.96
2016-08-20T04:36:59.829Z,98.96
2016-08-20T04:37:59.707Z,98.86
2016-08-20T04:38:59.682Z,98.67
2016-08-20T04:39:59.595Z,98.77
2016-08-20T04:41:00.923Z,99.15
2016-08-20T04:42:01.238Z,98.58
2016-08-20T04:43:00.162Z,98.86
2016-08-20T04:44:00.651Z,98.86
2016-08-20T04:45:00.940Z,98.58
2016-08-20T04:46:00.519Z,98.38
2016-08-20T04:47:00.467Z,97.91
2016-08-20T04:47:59.868Z,98.58
2016-08-20T04:49:00.752Z,98.86
2016-08-20T04:49:59.919Z,98.86
2016-08-20T04:51:01.402Z,98.58
2016-08-20T04:52:00.308Z,98.58
2016-08-20T04:52:59.950Z,98.19
2016-08-20T04:54:00.418Z,97.52
2016-08-20T04:55:00.862Z,97.81
2016-08-20T04:56:00.442Z,98.48
2016-08-20T04:57:00.439Z,98.38
2016-08-20T04:58:00.519Z,98.38
2016-08-20T04:59:00.653Z,98.1
2016-08-20T05:00:01.222Z,98.1
2016-08-20T05:01:00.415Z,98.29
2016-08-20T05:02:00.992Z,98.1
2016-08-20T05:03:01.158Z,98
2016-08-20T05:04:00.778Z,98
2016-08-20T05:05:00.741Z,97.81
2016-08-20T05:06:01.369Z,98.38
2016-08-20T05:07:00.838Z,98.29
2016-08-20T05:08:01.411Z,98.29
2016-08-20T05:09:00.163Z,98.1
2016-08-20T05:10:01.314Z,98.19
2016-08-20T05:11:01.133Z,98.96
2016-08-20T05:12:01.636Z,97.91
2016-08-20T05:13:00.627Z,98.19
2016-08-20T05:14:02.046Z,98.19
2016-08-20T05:15:00.387Z,98.29
2016-08-20T05:16:01.661Z,98.1
2016-08-20T05:17:00.835Z,98.38
2016-08-20T05:18:01.560Z,98
2016-08-20T05:19:01.144Z,98.96
2016-08-20T05:20:00.561Z,98.19
2016-08-20T05:21:00.927Z,98.1
2016-08-20T05:22:01.285Z,98.29
2016-08-20T05:23:00.406Z,98.29
2016-08-20T05:24:02.533Z,98.19
2016-08-20T05:25:00.904Z,98
2016-08-20T05:26:01.078Z,98.38
2016-08-20T05:27:00.494Z,98.67
2016-08-20T05:28:02.425Z,98.48
2016-08-20T05:29:01.138Z,98
2016-08-20T05:30:00.688Z,97.42
2016-08-20T05:31:00.896Z,97.42
2016-08-20T05:32:00.815Z,97.81
2016-08-20T05:33:01.650Z,98.38
2016-08-20T05:34:02.054Z,97.24
2016-08-20T05:35:01.135Z,98.38
2016-08-20T05:36:01.955Z,98.29
2016-08-20T05:37:01.927Z,98.29
2016-08-20T05:38:01.017Z,98.19
2016-08-20T05:39:02.174Z,98
2016-08-20T05:40:02.727Z,97.81
2016-08-20T05:41:01.209Z,97.04
2016-08-20T05:42:02.999Z,98.48
2016-08-20T05:43:02.526Z,98.67
2016-08-20T05:44:02.477Z,98.19
2016-08-20T05:45:02.336Z,98.1
2016-08-20T05:46:02.374Z,98.58
2016-08-20T05:47:02.325Z,98.19
2016-08-20T05:48:01.822Z,98.1
2016-08-20T05:49:03.258Z,98.1
2016-08-20T05:50:03.201Z,98.63
2016-08-20T05:51:02.015Z,98
2016-08-20T05:52:01.466Z,98.48
2016-08-20T05:53:02.866Z,97.14
2016-08-20T05:54:02.110Z,97.14
2016-08-20T05:55:01.824Z,96.94
2016-08-20T05:56:01.915Z,97.86
2016-08-20T05:57:03.126Z,98.1
2016-08-20T05:58:01.907Z,97.28
2016-08-20T05:59:02.645Z,96.51
2016-08-20T06:00:02.262Z,96.51
2016-08-20T06:01:03.009Z,96.89
2016-08-20T06:02:02.903Z,96.51
2016-08-20T06:03:02.518Z,96.89
2016-08-20T06:04:01.838Z,96.51
2016-08-20T06:05:02.226Z,96.42
2016-08-20T06:06:02.081Z,96.61
2016-08-20T06:07:02.188Z,96.51
2016-08-20T06:08:01.866Z,96.32
2016-08-20T06:09:02.361Z,95.84
2016-08-20T06:10:04.963Z,95.65
2016-08-20T06:11:02.655Z,95.65
2016-08-20T06:12:02.849Z,96.51
2016-08-20T06:13:03.235Z,96.51
2016-08-20T06:14:02.714Z,95.36
2016-08-20T06:15:01.736Z,95.94
2016-08-20T06:16:02.795Z,96.13
2016-08-20T06:17:02.384Z,94.98
2016-08-20T06:18:04.212Z,94.69
2016-08-20T06:19:02.122Z,94.49
2016-08-20T06:20:03.030Z,94.16
2016-08-20T06:21:02.186Z,93.68
2016-08-20T06:22:02.743Z,94.06
2016-08-20T06:23:01.989Z,93.1
2016-08-20T06:24:02.541Z,93.29
2016-08-20T06:25:02.873Z,93.29
2016-08-20T06:26:03.513Z,93.49
2016-08-20T06:27:02.939Z,93.1
2016-08-20T06:28:02.954Z,92.76
2016-08-20T06:29:03.415Z,92.29
2016-08-20T06:30:02.330Z,93.34
2016-08-20T06:31:02.549Z,93.29
2016-08-20T06:32:02.934Z,93.53
2016-08-20T06:33:03.083Z,93.05
2016-08-20T06:34:03.304Z,92.96
2016-08-20T06:35:03.002Z,92.86
2016-08-20T06:36:02.845Z,91.8
2016-08-20T06:37:05.302Z,91.03
2016-08-20T06:38:04.081Z,91.27
2016-08-20T06:39:03.235Z,92.04
2016-08-20T06:40:03.062Z,91.27
2016-08-20T06:41:03.611Z,91.17
2016-08-20T06:42:04.265Z,90.5
2016-08-20T06:43:03.940Z,90.41
2016-08-20T06:44:03.031Z,90.12
2016-08-20T06:45:03.104Z,90.89
2016-08-20T06:46:03.664Z,90.21
2016-08-20T06:47:03.248Z,90.41
2016-08-20T06:48:04.112Z,90.79
2016-08-20T06:49:02.944Z,90.59
2016-08-20T06:50:03.694Z,90.02
2016-08-20T06:51:03.100Z,89.92
2016-08-20T06:52:03.309Z,89.54
2016-08-20T06:53:03.382Z,88.77
2016-08-20T06:54:03.261Z,89.87
2016-08-20T06:55:03.660Z,89.01
2016-08-20T06:56:03.650Z,89.29
2016-08-20T06:57:03.328Z,89.49
2016-08-20T06:58:04.494Z,89.87
2016-08-20T06:59:03.115Z,89.58
2016-08-20T07:00:03.638Z,90.06
2016-08-20T07:01:03.376Z,91.31
2016-08-20T07:02:03.127Z,90.41
2016-08-20T07:03:04.259Z,90.21
2016-08-20T07:04:03.296Z,89.49
2016-08-20T07:05:04.220Z,89.39
2016-08-20T07:06:03.604Z,89.01
2016-08-20T07:07:03.847Z,89.68
2016-08-20T07:08:04.253Z,89.97
2016-08-20T07:09:04.325Z,89.87
2016-08-20T07:10:03.975Z,89.58
2016-08-20T07:11:04.306Z,88.81
2016-08-20T07:12:03.986Z,88.53
2016-08-20T07:13:04.178Z,88.14
2016-08-20T07:14:04.161Z,88.38
2016-08-20T07:15:04.325Z,87.56
2016-08-20T07:16:05.046Z,88.18
2016-08-20T07:17:04.745Z,89.2
2016-08-20T07:18:03.243Z,90.35
2016-08-20T07:19:03.891Z,89.43
2016-08-20T07:20:05.049Z,87.51
2016-08-20T07:21:04.028Z,86.93
2016-08-20T07:22:05.014Z,86.65
2016-08-20T07:23:03.918Z,86.55
2016-08-20T07:24:05.463Z,85.87
2016-08-20T07:25:03.927Z,85.49
2016-08-20T07:26:03.416Z,86.16
2016-08-20T07:27:04.056Z,85.87
2016-08-20T07:28:05.792Z,86.65
2016-08-20T07:29:04.431Z,87.8
2016-08-20T07:30:03.888Z,86.35
2016-08-20T07:31:05.215Z,85.97
2016-08-20T07:32:04.996Z,85.82
2016-08-20T07:33:03.994Z,85.43
2016-08-20T07:34:04.550Z,84.76
2016-08-20T07:35:04.512Z,84.47
2016-08-20T07:36:06.071Z,85.43
2016-08-20T07:37:04.271Z,85.3
2016-08-20T07:38:04.269Z,85.53
2016-08-20T07:39:04.705Z,84.76
2016-08-20T07:40:05.211Z,84.18
2016-08-20T07:41:04.509Z,85.05
2016-08-20T07:42:05.759Z,84.47
2016-08-20T07:43:05.362Z,84.95
2016-08-20T07:44:05.614Z,84.38
2016-08-20T07:45:05.689Z,84.47
2016-08-20T07:46:04.567Z,84.18
2016-08-20T07:47:04.321Z,84.09
2016-08-20T07:48:04.645Z,84.38
2016-08-20T07:49:04.682Z,84.95
2016-08-20T07:50:05.511Z,84.22
2016-08-20T07:51:05.109Z,82.49
2016-08-20T07:52:04.931Z,81.62
2016-08-20T07:53:05.534Z,81.76
2016-08-20T07:54:05.311Z,81.66
2016-08-20T07:55:05.732Z,81.37
2016-08-20T07:56:05.941Z,80.69
2016-08-20T07:57:06.521Z,81.27
2016-08-20T07:58:05.936Z,81.24
2016-08-20T07:59:05.613Z,81.87
2016-08-20T08:00:06.163Z,81.81
2016-08-20T08:01:04.596Z,81.24
2016-08-20T08:02:05.515Z,78.83
2016-08-20T08:03:05.462Z,79.5
2016-08-20T08:04:04.708Z,79.69
2016-08-20T08:05:06.611Z,79.89
2016-08-20T08:06:05.217Z,78.86
2016-08-20T08:07:05.215Z,78.96
2016-08-20T08:08:05.623Z,80.76
2016-08-20T08:09:05.905Z,79.89
2016-08-20T08:10:05.588Z,79.11
2016-08-20T08:11:06.220Z,79.79
2016-08-20T08:12:06.238Z,78.63
2016-08-20T08:13:04.716Z,78.48
2016-08-20T08:14:06.101Z,78.54
2016-08-20T08:15:06.111Z,78.83
2016-08-20T08:16:06.085Z,79.98
2016-08-20T08:17:05.488Z,79.98
2016-08-20T08:18:06.819Z,80.08
2016-08-20T08:19:06.078Z,79.41
2016-08-20T08:20:06.420Z,78.25
2016-08-20T08:21:05.431Z,79.11
2016-08-20T08:22:05.684Z,78.25
2016-08-20T08:23:05.822Z,78.83
2016-08-20T08:24:07.320Z,78.38
2016-08-20T08:25:05.644Z,77.76
2016-08-20T08:26:05.540Z,78.15
2016-08-20T08:27:05.529Z,77.76
2016-08-20T08:28:06.058Z,77.81
2016-08-20T08:29:06.672Z,77.46
2016-08-20T08:30:06.285Z,74.95
2016-08-20T08:31:05.955Z,75.49
2016-08-20T08:32:05.902Z,75.68
2016-08-20T08:33:05.905Z,76.75
2016-08-20T08:34:06.465Z,75.88
2016-08-20T08:35:06.229Z,74.95
2016-08-20T08:36:05.953Z,76.1
2016-08-20T08:37:07.470Z,77.65
2016-08-20T08:38:06.925Z,77.23
2016-08-20T08:39:06.377Z,78.09
2016-08-20T08:40:05.885Z,80.02
2016-08-20T08:41:06.178Z,78.54
2016-08-20T08:42:07.070Z,76.32
2016-08-20T08:43:06.102Z,74.97
2016-08-20T08:44:07.806Z,72.08
2016-08-20T08:45:07.289Z,72.75
2016-08-20T08:46:06.611Z,72.75
2016-08-20T08:47:08.786Z,71.73
2016-08-20T08:48:06.276Z,72.37
2016-08-20T08:49:06.896Z,73.24
2016-08-20T08:50:06.788Z,73.82
2016-08-20T08:51:06.233Z,72.66
2016-08-20T08:52:07.504Z,71.22
2016-08-20T08:53:06.676Z,69.38
2016-08-20T08:54:07.416Z,70.54
2016-08-20T08:55:07.761Z,69.55
2016-08-20T08:56:07.532Z,68.77
2016-08-20T08:57:06.793Z,70.8
2016-08-20T08:58:06.944Z,71.06
2016-08-20T08:59:06.876Z,70.7
2016-08-20T09:00:06.183Z,70.22
2016-08-20T09:01:06.863Z,71.34
2016-08-20T09:02:07.185Z,70.13
2016-08-20T09:03:06.692Z,70.09
2016-08-20T09:04:07.145Z,70
2016-08-20T09:05:06.613Z,70.13
2016-08-20T09:06:06.467Z,68.1
2016-08-20T09:07:07.767Z,68.84
2016-08-20T09:08:07.717Z,68.68
2016-08-20T09:09:07.700Z,67.1
2016-08-20T09:10:07.972Z,67.16
2016-08-20T09:11:08.130Z,67.65
2016-08-20T09:12:08.545Z,68.32
2016-08-20T09:13:06.835Z,67.46
2016-08-20T09:14:08.209Z,67.58
2016-08-20T09:15:07.674Z,67.71
2016-08-20T09:16:07.045Z,67.55
2016-08-20T09:17:07.645Z,67.07
2016-08-20T09:18:08.415Z,67.33
2016-08-20T09:19:07.967Z,66.78
2016-08-20T09:20:06.972Z,65.98
2016-08-20T09:21:08.694Z,64.63
2016-08-20T09:22:08.424Z,64.31
2016-08-20T09:23:07.290Z,64.14
2016-08-20T09:24:07.374Z,65.95
2016-08-20T09:25:07.425Z,66.72
2016-08-20T09:26:07.663Z,66.4
2016-08-20T09:27:08.734Z,67.23
2016-08-20T09:28:07.761Z,66.85
2016-08-20T09:29:08.712Z,68.97
2016-08-20T09:30:07.372Z,67.4
2016-08-20T09:31:07.991Z,68.35
2016-08-20T09:32:07.757Z,67.71
2016-08-20T09:33:07.729Z,67.94
2016-08-20T09:34:08.430Z,66.4
2016-08-20T09:35:08.109Z,67.46
2016-08-20T09:36:07.580Z,66.88
2016-08-20T09:37:08.279Z,64.95
2016-08-20T09:38:07.864Z,61.95
2016-08-20T09:39:08.844Z,62.37
2016-08-20T09:40:07.607Z,63.92
2016-08-20T09:41:09.014Z,63.69
2016-08-20T09:42:08.662Z,63.08
2016-08-20T09:43:07.919Z,59.5
2016-08-20T09:44:09.113Z,60.01
2016-08-20T09:45:08.506Z,61.4
2016-08-20T09:46:09.438Z,61.3
2016-08-20T09:47:08.501Z,62.05
2016-08-20T09:48:09.343Z,61.37
2016-08-20T09:49:08.334Z,61.02
2016-08-20T09:50:08.416Z,59.11
2016-08-20T09:51:08.781Z,56.68
2016-08-20T09:52:09.110Z,59.2
2016-08-20T09:53:08.109Z,56.85
2016-08-20T09:54:08.325Z,56.81
2016-08-20T09:55:08.195Z,57.78
2016-08-20T09:56:09.014Z,55.38
2016-08-20T09:57:08.789Z,57.32
2016-08-20T09:58:08.155Z,56.97
2016-08-20T09:59:09.076Z,57.78
2016-08-20T10:00:08.895Z,55.44
2016-08-20T10:01:10.516Z,56.41
2016-08-20T10:02:09.084Z,57.75
2016-08-20T10:03:09.920Z,58.42
2016-08-20T10:04:09.768Z,61.02
2016-08-20T10:05:10.233Z,60.69
2016-08-20T10:06:09.976Z,61.37
2016-08-20T10:07:08.601Z,61.27
2016-08-20T10:08:09.059Z,62.66
2016-08-20T10:09:08.573Z,61.79
2016-08-20T10:10:09.524Z,61.89
2016-08-20T10:11:09.050Z,62.66
2016-08-20T10:12:09.595Z,63.24
2016-08-20T10:13:09.114Z,62.85
2016-08-20T10:14:11.929Z,64.69
2016-08-20T10:15:11.981Z,66.17
2016-08-20T10:16:11.026Z,66.72
2016-08-20T10:17:10.100Z,67.36
2016-08-20T10:18:10.227Z,67.52
2016-08-20T10:19:10.729Z,67.14
2016-08-20T10:20:10.420Z,68.68
2016-08-20T10:21:11.474Z,67.75
2016-08-20T10:22:11.499Z,67.11
2016-08-20T10:23:11.005Z,70.58
2016-08-20T10:24:09.325Z,71.22
2016-08-20T10:25:10.124Z,73.54
2016-08-20T10:26:08.978Z,72.19
2016-08-20T10:27:09.752Z,69.97
2016-08-20T10:28:09.802Z,68.26
2016-08-20T10:29:09.452Z,67.78
2016-08-20T10:30:09.392Z,66.46
2016-08-20T10:31:10.080Z,65.72
2016-08-20T10:32:09.810Z,65.14
2016-08-20T10:33:09.717Z,65.63
2016-08-20T10:34:11.059Z,65.72
2016-08-20T10:35:10.234Z,68.33
2016-08-20T10:36:09.152Z,67.33
2016-08-20T10:37:09.620Z,66.46
2016-08-20T10:38:09.709Z,65.5
2016-08-20T10:39:10.084Z,65.43
2016-08-20T10:40:10.114Z,65.05
2016-08-20T10:41:10.402Z,65.05
2016-08-20T10:42:10.224Z,65.59
2016-08-20T10:43:10.607Z,65.69
2016-08-20T10:44:10.546Z,66.75
2016-08-20T10:45:10.659Z,66.72
2016-08-20T10:46:11.579Z,66.72
2016-08-20T10:47:11.025Z,67.01
2016-08-20T10:48:10.633Z,67.55
2016-08-20T10:49:10.112Z,68.33
2016-08-20T10:50:10.243Z,68.43
2016-08-20T10:51:11.401Z,69.49
2016-08-20T10:52:11.000Z,70.8
2016-08-20T10:53:09.698Z,71.09
2016-08-20T10:54:11.066Z,72.92
2016-08-20T10:55:10.106Z,70.32
2016-08-20T10:56:11.302Z,70.22
2016-08-20T10:57:10.392Z,70.26
2016-08-20T10:58:10.546Z,71.38
2016-08-20T10:59:12.711Z,71.48
2016-08-20T11:00:11.011Z,70.19
2016-08-20T11:01:10.501Z,70.96
2016-08-20T11:02:11.134Z,71.06
2016-08-20T11:03:12.873Z,71.06
2016-08-20T11:04:10.347Z,71.54
2016-08-20T11:05:11.345Z,71.73
2016-08-20T11:06:11.141Z,72.08
2016-08-20T11:07:11.295Z,71.98
2016-08-20T11:08:11.686Z,72.21
2016-08-20T11:09:10.758Z,72.31
2016-08-20T11:10:11.047Z,72.69
2016-08-20T11:11:11.307Z,74.08
2016-08-20T11:12:10.576Z,74.33
2016-08-20T11:13:12.820Z,74.52
2016-08-20T11:14:10.515Z,76.75
2016-08-20T11:15:11.460Z,77.76
2016-08-20T11:16:12.529Z,79.17
2016-08-20T11:17:11.633Z,78.21
2016-08-20T11:18:11.590Z,79.66
2016-08-20T11:19:11.884Z,80.35
2016-08-20T11:20:11.941Z,81.4
2016-08-20T11:21:11.411Z,81.83
2016-08-20T11:22:12.249Z,81.25
2016-08-20T11:23:12.316Z,79.43
2016-08-20T11:24:11.827Z,78.31
2016-08-20T11:25:11.374Z,76.48
2016-08-20T11:26:12.390Z,75.45
2016-08-20T11:27:12.440Z,74.58
2016-08-20T11:28:13.757Z,75.65
2016-08-20T11:29:11.858Z,74.3
2016-08-20T11:30:11.434Z,76.03
2016-08-20T11:31:11.809Z,73.99
2016-08-20T11:32:11.668Z,72.48
2016-08-20T11:33:12.387Z,73.96
2016-08-20T11:34:11.650Z,72.96
2016-08-20T11:35:12.718Z,73.79
2016-08-20T11:36:12.176Z,72.63
2016-08-20T11:37:12.307Z,73.02
2016-08-20T11:38:11.509Z,72.44
2016-08-20T11:39:12.968Z,70.97
2016-08-20T11:40:12.462Z,72.55
2016-08-20T11:41:11.991Z,72.03
2016-08-20T11:42:12.281Z,72.06
2016-08-20T11:43:11.452Z,72
2016-08-20T11:44:11.607Z,72.54
2016-08-20T11:45:12.264Z,72.15
2016-08-20T11:46:11.714Z,71.12
2016-08-20T11:47:13.082Z,71.32
2016-08-20T11:48:12.835Z,71.96
2016-08-20T11:49:11.770Z,70.36
2016-08-20T11:50:11.811Z,69.36
2016-08-20T11:51:12.587Z,70.23
2016-08-20T11:52:11.991Z,68.78
2016-08-20T11:53:11.742Z,68.4
2016-08-20T11:54:12.812Z,67.62
2016-08-20T11:55:12.566Z,67.62
2016-08-20T11:56:13.416Z,67.33
2016-08-20T11:57:13.152Z,68.4
2016-08-20T11:58:13.425Z,67.78
2016-08-20T11:59:12.067Z,68.94
2016-08-20T12:00:13.127Z,68.71
2016-08-20T12:01:13.091Z,68.94
2016-08-20T12:02:13.034Z,68.17
2016-08-20T12:03:13.043Z,68.55
2016-08-20T12:04:13.024Z,68.26
2016-08-20T12:05:12.984Z,67.43
2016-08-20T12:06:12.006Z,67.43
2016-08-20T12:07:13.178Z,67.91
2016-08-20T12:08:12.319Z,69.17
2016-08-20T12:09:14.517Z,66.85
2016-08-20T12:10:13.584Z,67.56
2016-08-20T12:11:12.645Z,67.75
2016-08-20T12:12:12.795Z,67.75
2016-08-20T12:13:12.270Z,66.69
2016-08-20T12:14:13.375Z,65.63
2016-08-20T12:15:14.783Z,65.3
2016-08-20T12:16:12.909Z,65.75
2016-08-20T12:17:13.806Z,65.59
2016-08-20T12:18:12.647Z,66.66
2016-08-20T12:19:12.925Z,66.59
2016-08-20T12:20:13.086Z,67.56
2016-08-20T12:21:12.924Z,67.14
2016-08-20T12:22:14.111Z,67.33
2016-08-20T12:23:13.223Z,66.11
2016-08-20T12:24:12.640Z,66.17
2016-08-20T12:25:13.444Z,66.3
2016-08-20T12:26:13.607Z,66.01
2016-08-20T12:27:13.060Z,64.5
2016-08-20T12:28:14.282Z,64.21
2016-08-20T12:29:12.728Z,63.56
2016-08-20T12:30:12.823Z,63.37
2016-08-20T12:31:14.358Z,64.43
2016-08-20T12:32:12.776Z,62.59
2016-08-20T12:33:13.038Z,62.43
2016-08-20T12:34:13.121Z,62.75
2016-08-20T12:35:13.272Z,61.82
2016-08-20T12:36:13.505Z,62.17
2016-08-20T12:37:13.126Z,63.49
2016-08-20T12:38:14.154Z,63.11
2016-08-20T12:39:13.464Z,63.56
2016-08-20T12:40:13.088Z,64.5
2016-08-20T12:41:13.980Z,63.82
2016-08-20T12:42:15.017Z,61.92
2016-08-20T12:43:13.988Z,61.66
2016-08-20T12:44:13.030Z,63.43
2016-08-20T12:45:13.587Z,64.79
2016-08-20T12:46:13.785Z,63.76
2016-08-20T12:47:13.638Z,64.5
2016-08-20T12:48:13.556Z,63.98
2016-08-20T12:49:14.308Z,63.46
2016-08-20T12:50:13.792Z,60.75
2016-08-20T12:51:14.840Z,61.43
2016-08-20T12:52:13.919Z,62.18
2016-08-20T12:53:14.915Z,63.11
2016-08-20T12:54:13.888Z,63.11
2016-08-20T12:55:14.555Z,62.15
2016-08-20T12:56:14.788Z,60.63
2016-08-20T12:57:13.866Z,61.11